createdAt,value
2017-11-22T00:00:05.515Z,961.47
2017-11-22T00:15:04.524Z,961.79
2017-11-22T00:30:05.611Z,961.6
2017-11-22T00:45:04.502Z,961.66
2017-11-22T01:00:05.011Z,961.9
2017-11-22T01:15:04.962Z,961.87
2017-11-22T01:30:08.170Z,961.92
2017-11-22T01:45:07.615Z,962.24
2017-11-22T02:00:05.115Z,961.98
2017-11-22T02:15:05.606Z,961.92
2017-11-22T02:30:05.202Z,962.32
2017-11-22T02:45:12.900Z,962.57
2017-11-22T03:00:05.862Z,962.3
2017-11-22T03:15:06.342Z,962.51
2017-11-22T03:30:04.797Z,962.38
2017-11-22T03:45:19.847Z,962.57
2017-11-22T04:00:04.976Z,962.65
2017-11-22T04:15:04.922Z,962.51
2017-11-22T04:30:05.203Z,963.07
2017-11-22T04:45:06.194Z,962.75
2017-11-22T05:00:04.643Z,962.89
2017-11-22T05:15:04.527Z,962.38
2017-11-22T05:30:04.413Z,962.62
2017-11-22T05:45:04.853Z,962.73
2017-11-22T06:00:04.730Z,962.65
2017-11-22T06:15:07.820Z,962.59
2017-11-22T06:30:04.940Z,962.54
2017-11-22T06:45:04.328Z,962.35
2017-11-22T07:00:04.750Z,962.73
2017-11-22T07:15:05.221Z,962.08
2017-11-22T07:30:04.877Z,961.68
2017-11-22T07:45:05.280Z,960.16
2017-11-22T08:00:05.771Z,965.49
2017-11-22T08:15:08.338Z,963.11
2017-11-22T08:30:07.994Z,959.85
2017-11-22T08:45:04.363Z,958.63
2017-11-22T09:00:08.444Z,959.93
2017-11-22T09:15:05.331Z,961.01
2017-11-22T09:30:04.539Z,961.28
2017-11-22T09:45:10.742Z,960.28
2017-11-22T10:00:05.184Z,959.98
2017-11-22T10:15:04.549Z,960.2
2017-11-22T10:30:04.634Z,959.66
2017-11-22T10:45:08.125Z,958.93
2017-11-22T11:00:05.710Z,958.12
2017-11-22T11:15:04.841Z,957.85
2017-11-22T11:30:04.952Z,957.74
2017-11-22T11:45:04.383Z,957.28
2017-11-22T12:00:06.386Z,957.15
2017-11-22T12:15:04.349Z,957.09
2017-11-22T12:30:05.557Z,956.74
2017-11-22T12:45:05.719Z,956.66
2017-11-22T13:00:06.137Z,956.45
2017-11-22T13:15:05.010Z,956.31
2017-11-22T13:30:05.419Z,956.45
2017-11-22T13:45:05.607Z,956.58
2017-11-22T14:00:05.297Z,956.8
2017-11-22T14:15:05.391Z,957.07
2017-11-22T14:30:05.558Z,957.55
2017-11-22T14:45:04.467Z,957.82
2017-11-22T15:00:04.926Z,958.09
2017-11-22T15:15:04.607Z,958.69
2017-11-22T15:30:10.272Z,959.01
2017-11-22T15:45:05.993Z,959.33
2017-11-22T16:00:04.622Z,959.87
2017-11-22T16:15:04.548Z,960.14
2017-11-22T16:30:04.764Z,960.2
2017-11-22T16:45:08.254Z,960.58
2017-11-22T17:00:07.933Z,960.66
2017-11-22T17:15:05.460Z,961.03
2017-11-22T17:30:06.023Z,961.25
2017-11-22T17:45:06.157Z,961.68
2017-11-22T18:00:08.168Z,961.98
2017-11-22T18:15:04.523Z,962.25
2017-11-22T18:30:08.346Z,955.13
2017-11-22T18:45:06.266Z,955.34
2017-11-22T19:00:05.317Z,955.39
2017-11-22T19:15:06.298Z,955.85
2017-11-22T19:30:40.854Z,956.01
2017-11-22T19:45:07.464Z,955.82
2017-11-22T20:00:04.427Z,956.22
2017-11-22T20:15:05.897Z,956.81
2017-11-22T20:30:04.613Z,956.65
2017-11-22T20:45:05.000Z,956.92
2017-11-22T21:01:09.727Z,957.27
2017-11-22T21:15:05.705Z,957.7
2017-11-22T21:30:04.373Z,957.64
2017-11-22T21:45:04.769Z,957.86
2017-11-22T22:00:06.319Z,957.8
2017-11-22T22:15:10.954Z,957.99
2017-11-22T22:30:04.576Z,958.04
2017-11-22T22:45:05.248Z,958.04
2017-11-22T23:00:04.752Z,957.86
2017-11-22T23:15:10.962Z,958.15
2017-11-22T23:30:06.464Z,958.28
2017-11-22T23:45:05.071Z,958.18
